createdAt,value
2022-07-25T00:12:45.649Z,10.33
2022-07-25T00:27:37.228Z,20.01
2022-07-25T00:42:28.651Z,10.32
2022-07-25T00:57:18.804Z,11.10
2022-07-25T01:12:09.651Z,16.25
2022-07-25T01:27:01.266Z,14.26
2022-07-25T01:41:52.475Z,11.69
2022-07-25T01:56:46.928Z,13.06
2022-07-25T02:11:36.283Z,10.90
2022-07-25T02:26:27.357Z,11.32
2022-07-25T02:41:19.045Z,10.46
2022-07-25T02:56:11.477Z,10.99
2022-07-25T03:11:03.536Z,14.52
2022-07-25T03:25:55.529Z,22.90
2022-07-25T03:40:47.357Z,17.37
2022-07-25T03:55:39.624Z,22.94
2022-07-25T04:10:31.057Z,14.49
2022-07-25T04:25:22.722Z,16.85
2022-07-25T04:40:14.835Z,19.64
2022-07-25T04:55:08.247Z,13.02
2022-07-25T05:10:00.502Z,13.52
2022-07-25T05:24:53.044Z,13.77
2022-07-25T05:39:45.440Z,11.73
2022-07-25T05:54:37.170Z,12.75
2022-07-25T06:09:29.469Z,12.59
2022-07-25T06:24:22.908Z,11.26
2022-07-25T06:39:16.425Z,11.70
2022-07-25T06:54:09.397Z,11.35
2022-07-25T07:23:55.434Z,9.91
2022-07-25T07:38:48.598Z,10.60
2022-07-25T08:23:51.120Z,10.84
2022-07-25T08:38:44.125Z,9.87
2022-07-25T08:53:36.835Z,10.90
2022-07-25T09:08:30.655Z,9.78
2022-07-25T09:23:32.822Z,9.67
2022-07-25T09:38:30.827Z,9.84
2022-07-25T09:53:23.839Z,9.49
2022-07-25T10:08:16.659Z,9.34
2022-07-25T10:23:24.392Z,9.61
2022-07-25T10:38:25.780Z,9.68
2022-07-25T10:53:33.059Z,11.01
2022-07-25T11:08:30.483Z,8.96
2022-07-25T11:23:23.681Z,9.16
2022-07-25T11:38:16.524Z,8.31
2022-07-25T11:53:10.368Z,8.66
2022-07-25T12:08:13.307Z,8.98
2022-07-25T12:23:10.818Z,9.11
2022-07-25T12:38:03.849Z,8.71
2022-07-25T12:52:56.551Z,9.37
2022-07-25T13:07:48.538Z,9.44
2022-07-25T13:22:41.357Z,12.32
2022-07-25T13:37:33.464Z,9.61
2022-07-25T13:52:27.057Z,9.29
2022-07-25T14:07:20.191Z,9.67
2022-07-25T14:22:11.464Z,10.61
2022-07-25T14:37:04.228Z,11.48
2022-07-25T14:51:55.495Z,17.20
2022-07-25T15:06:50.905Z,8.79
2022-07-25T15:21:46.075Z,8.76
2022-07-25T15:36:38.670Z,6.57
2022-07-25T15:51:33.363Z,7.70
2022-07-25T16:06:24.193Z,7.30
2022-07-25T16:21:18.071Z,8.07
2022-07-25T16:36:09.214Z,7.49
2022-07-25T16:51:05.755Z,8.61
2022-07-25T17:05:53.041Z,10.37
2022-07-25T17:20:44.586Z,8.58
2022-07-25T17:35:35.530Z,7.64
2022-07-25T17:50:29.256Z,5.31
2022-07-25T18:05:18.047Z,4.91
2022-07-25T18:20:19.412Z,8.87
2022-07-25T18:35:10.953Z,6.03
2022-07-25T18:50:01.857Z,4.60
2022-07-25T19:04:52.990Z,5.30
2022-07-25T19:19:44.670Z,6.39
2022-07-25T19:34:35.257Z,3.57
2022-07-25T19:49:27.210Z,4.20
2022-07-25T20:04:19.513Z,6.49
2022-07-25T20:34:16.227Z,4.08
2022-07-25T20:49:11.036Z,5.70
2022-07-25T21:04:07.574Z,6.01
2022-07-25T21:18:57.449Z,5.10
2022-07-25T21:33:48.901Z,7.06
2022-07-25T21:48:58.213Z,6.32
2022-07-25T22:18:49.111Z,5.28
2022-07-25T22:33:40.732Z,5.01
2022-07-25T22:48:32.647Z,2.52
2022-07-25T23:03:24.829Z,2.84
2022-07-25T23:18:16.959Z,2.89
2022-07-25T23:33:08.770Z,2.97
2022-07-25T23:47:59.736Z,2.33
